sensor_id;sensor_type;location;lat;lon;timestamp;temperature;humidity
16198;DHT22;8206;51.440;6.914;2022-08-21T00:01:27;18.00;99.90
16198;DHT22;8206;51.440;6.914;2022-08-21T00:03:56;18.00;99.90
16198;DHT22;8206;51.440;6.914;2022-08-21T00:06:24;18.00;99.90
16198;DHT22;8206;51.440;6.914;2022-08-21T00:08:51;18.10;99.90
16198;DHT22;8206;51.440;6.914;2022-08-21T00:11:18;18.10;99.90
16198;DHT22;8206;51.440;6.914;2022-08-21T00:13:45;18.00;99.90
16198;DHT22;8206;51.440;6.914;2022-08-21T00:16:12;18.00;99.90
16198;DHT22;8206;51.440;6.914;2022-08-21T00:18:39;18.00;99.90
16198;DHT22;8206;51.440;6.914;2022-08-21T00:21:07;18.00;99.90
16198;DHT22;8206;51.440;6.914;2022-08-21T00:23:34;17.90;99.90
16198;DHT22;8206;51.440;6.914;2022-08-21T00:26:02;17.90;1.00
16198;DHT22;8206;51.440;6.914;2022-08-21T00:28:29;17.80;1.00
16198;DHT22;8206;51.440;6.914;2022-08-21T00:30:56;17.80;1.00
16198;DHT22;8206;51.440;6.914;2022-08-21T00:33:23;17.70;1.00
16198;DHT22;8206;51.440;6.914;2022-08-21T00:35:50;17.60;1.00
16198;DHT22;8206;51.440;6.914;2022-08-21T00:38:18;17.60;1.00
16198;DHT22;8206;51.440;6.914;2022-08-21T00:40:48;17.60;1.00
16198;DHT22;8206;51.440;6.914;2022-08-21T00:43:19;17.50;1.00
16198;DHT22;8206;51.440;6.914;2022-08-21T00:45:47;17.50;1.00
16198;DHT22;8206;51.440;6.914;2022-08-21T00:48:14;17.40;1.00
16198;DHT22;8206;51.440;6.914;2022-08-21T00:50:44;17.30;1.00
16198;DHT22;8206;51.440;6.914;2022-08-21T00:53:13;17.20;1.00
16198;DHT22;8206;51.440;6.914;2022-08-21T00:55:42;17.10;1.00
16198;DHT22;8206;51.440;6.914;2022-08-21T00:58:11;17.00;1.00
16198;DHT22;8206;51.440;6.914;2022-08-21T01:00:41;16.90;1.00
16198;DHT22;8206;51.440;6.914;2022-08-21T01:03:12;16.80;1.00
16198;DHT22;8206;51.440;6.914;2022-08-21T01:05:40;16.70;1.00
16198;DHT22;8206;51.440;6.914;2022-08-21T01:08:09;16.70;1.00
16198;DHT22;8206;51.440;6.914;2022-08-21T01:10:37;16.60;1.00
16198;DHT22;8206;51.440;6.914;2022-08-21T01:13:07;16.50;1.00
16198;DHT22;8206;51.440;6.914;2022-08-21T01:15:37;16.50;1.00
16198;DHT22;8206;51.440;6.914;2022-08-21T01:18:06;16.40;1.00
16198;DHT22;8206;51.440;6.914;2022-08-21T01:20:34;16.40;1.00
16198;DHT22;8206;51.440;6.914;2022-08-21T01:23:04;16.30;1.00
16198;DHT22;8206;51.440;6.914;2022-08-21T01:25:31;16.30;1.00
16198;DHT22;8206;51.440;6.914;2022-08-21T01:28:04;16.30;1.00
16198;DHT22;8206;51.440;6.914;2022-08-21T01:30:34;16.20;1.00
16198;DHT22;8206;51.440;6.914;2022-08-21T01:33:02;16.20;1.00
16198;DHT22;8206;51.440;6.914;2022-08-21T01:35:28;16.10;1.00
16198;DHT22;8206;51.440;6.914;2022-08-21T01:37:55;16.10;1.00
16198;DHT22;8206;51.440;6.914;2022-08-21T01:40:24;16.00;1.00
16198;DHT22;8206;51.440;6.914;2022-08-21T01:42:50;16.00;1.00
16198;DHT22;8206;51.440;6.914;2022-08-21T01:45:19;15.90;1.00
16198;DHT22;8206;51.440;6.914;2022-08-21T01:47:46;15.90;1.00
16198;DHT22;8206;51.440;6.914;2022-08-21T01:50:16;15.90;1.00
16198;DHT22;8206;51.440;6.914;2022-08-21T01:52:44;15.80;1.00
16198;DHT22;8206;51.440;6.914;2022-08-21T01:55:12;15.80;1.00
16198;DHT22;8206;51.440;6.914;2022-08-21T01:57:40;15.80;1.00
16198;DHT22;8206;51.440;6.914;2022-08-21T02:00:11;15.70;1.00
16198;DHT22;8206;51.440;6.914;2022-08-21T02:02:38;15.70;1.00
16198;DHT22;8206;51.440;6.914;2022-08-21T02:05:07;15.70;1.00
16198;DHT22;8206;51.440;6.914;2022-08-21T02:07:39;15.60;1.00
16198;DHT22;8206;51.440;6.914;2022-08-21T02:10:09;15.60;1.00
16198;DHT22;8206;51.440;6.914;2022-08-21T02:12:37;15.60;1.00
16198;DHT22;8206;51.440;6.914;2022-08-21T02:15:06;15.50;1.00
16198;DHT22;8206;51.440;6.914;2022-08-21T02:17:40;15.50;1.00
16198;DHT22;8206;51.440;6.914;2022-08-21T02:20:09;15.50;1.00
16198;DHT22;8206;51.440;6.914;2022-08-21T02:22:36;15.50;1.00
16198;DHT22;8206;51.440;6.914;2022-08-21T02:25:04;15.50;1.00
16198;DHT22;8206;51.440;6.914;2022-08-21T02:27:38;15.40;1.00
16198;DHT22;8206;51.440;6.914;2022-08-21T02:30:10;15.40;1.00
16198;DHT22;8206;51.440;6.914;2022-08-21T02:32:37;15.50;1.00
16198;DHT22;8206;51.440;6.914;2022-08-21T02:35:04;15.50;1.00
16198;DHT22;8206;51.440;6.914;2022-08-21T02:37:31;15.50;1.00
16198;DHT22;8206;51.440;6.914;2022-08-21T02:39:59;15.50;1.00
16198;DHT22;8206;51.440;6.914;2022-08-21T02:42:26;15.50;1.00
16198;DHT22;8206;51.440;6.914;2022-08-21T02:44:53;15.50;1.00
16198;DHT22;8206;51.440;6.914;2022-08-21T02:47:21;15.50;1.00
16198;DHT22;8206;51.440;6.914;2022-08-21T02:49:48;15.50;1.00
16198;DHT22;8206;51.440;6.914;2022-08-21T02:52:15;15.40;1.00
16198;DHT22;8206;51.440;6.914;2022-08-21T02:54:42;15.40;1.00
16198;DHT22;8206;51.440;6.914;2022-08-21T02:57:09;15.40;1.00
16198;DHT22;8206;51.440;6.914;2022-08-21T02:59:36;15.40;1.00
16198;DHT22;8206;51.440;6.914;2022-08-21T03:02:03;15.40;1.00
16198;DHT22;8206;51.440;6.914;2022-08-21T03:04:31;15.40;1.00
16198;DHT22;8206;51.440;6.914;2022-08-21T03:06:58;15.40;1.00
16198;DHT22;8206;51.440;6.914;2022-08-21T03:09:25;15.30;1.00
16198;DHT22;8206;51.440;6.914;2022-08-21T03:11:52;15.30;1.00
16198;DHT22;8206;51.440;6.914;2022-08-21T03:14:19;15.20;1.00
16198;DHT22;8206;51.440;6.914;2022-08-21T03:16:46;15.20;1.00
16198;DHT22;8206;51.440;6.914;2022-08-21T03:19:13;15.20;1.00
16198;DHT22;8206;51.440;6.914;2022-08-21T03:21:41;15.20;1.00
16198;DHT22;8206;51.440;6.914;2022-08-21T03:24:08;15.20;1.00
16198;DHT22;8206;51.440;6.914;2022-08-21T03:26:35;15.20;1.00
16198;DHT22;8206;51.440;6.914;2022-08-21T03:29:02;15.10;1.00
16198;DHT22;8206;51.440;6.914;2022-08-21T03:31:29;15.20;1.00
16198;DHT22;8206;51.440;6.914;2022-08-21T03:33:57;15.20;1.00
16198;DHT22;8206;51.440;6.914;2022-08-21T03:36:24;15.20;1.00
16198;DHT22;8206;51.440;6.914;2022-08-21T03:38:52;15.20;1.00
16198;DHT22;8206;51.440;6.914;2022-08-21T03:41:19;15.20;1.00
16198;DHT22;8206;51.440;6.914;2022-08-21T03:43:46;15.20;1.00
16198;DHT22;8206;51.440;6.914;2022-08-21T03:46:13;15.20;1.00
16198;DHT22;8206;51.440;6.914;2022-08-21T03:48:40;15.20;1.00
16198;DHT22;8206;51.440;6.914;2022-08-21T03:51:07;15.10;1.00
16198;DHT22;8206;51.440;6.914;2022-08-21T03:53:34;15.00;1.00
16198;DHT22;8206;51.440;6.914;2022-08-21T03:56:03;15.00;1.00
16198;DHT22;8206;51.440;6.914;2022-08-21T03:58:31;14.90;1.00
16198;DHT22;8206;51.440;6.914;2022-08-21T04:00:59;14.80;1.00
16198;DHT22;8206;51.440;6.914;2022-08-21T04:03:27;14.80;1.00
16198;DHT22;8206;51.440;6.914;2022-08-21T04:05:54;14.70;1.00
16198;DHT22;8206;51.440;6.914;2022-08-21T04:08:21;14.70;1.00
16198;DHT22;8206;51.440;6.914;2022-08-21T04:10:50;14.70;1.00
16198;DHT22;8206;51.440;6.914;2022-08-21T04:13:19;14.70;1.00
16198;DHT22;8206;51.440;6.914;2022-08-21T04:15:46;14.60;1.00
16198;DHT22;8206;51.440;6.914;2022-08-21T04:18:13;14.60;1.00
16198;DHT22;8206;51.440;6.914;2022-08-21T04:20:41;14.50;1.00
16198;DHT22;8206;51.440;6.914;2022-08-21T04:23:09;14.50;1.00
16198;DHT22;8206;51.440;6.914;2022-08-21T04:25:36;14.50;1.00
16198;DHT22;8206;51.440;6.914;2022-08-21T04:28:03;14.50;1.00
16198;DHT22;8206;51.440;6.914;2022-08-21T04:30:31;14.50;1.00
16198;DHT22;8206;51.440;6.914;2022-08-21T04:32:58;14.50;1.00
16198;DHT22;8206;51.440;6.914;2022-08-21T04:35:27;14.50;1.00
16198;DHT22;8206;51.440;6.914;2022-08-21T04:37:54;14.40;1.00
16198;DHT22;8206;51.440;6.914;2022-08-21T04:40:23;14.50;1.00
16198;DHT22;8206;51.440;6.914;2022-08-21T04:42:52;14.50;1.00
16198;DHT22;8206;51.440;6.914;2022-08-21T04:45:21;14.60;1.00
16198;DHT22;8206;51.440;6.914;2022-08-21T04:47:51;14.60;1.00
16198;DHT22;8206;51.440;6.914;2022-08-21T04:50:19;14.70;1.00
16198;DHT22;8206;51.440;6.914;2022-08-21T04:52:46;14.70;1.00
16198;DHT22;8206;51.440;6.914;2022-08-21T04:55:15;14.80;1.00
16198;DHT22;8206;51.440;6.914;2022-08-21T04:57:42;14.80;1.00
16198;DHT22;8206;51.440;6.914;2022-08-21T05:00:10;14.90;1.00
16198;DHT22;8206;51.440;6.914;2022-08-21T05:02:39;14.90;1.00
16198;DHT22;8206;51.440;6.914;2022-08-21T05:05:08;14.90;1.00
16198;DHT22;8206;51.440;6.914;2022-08-21T05:07:35;15.00;1.00
16198;DHT22;8206;51.440;6.914;2022-08-21T05:10:04;15.00;1.00
16198;DHT22;8206;51.440;6.914;2022-08-21T05:12:33;15.00;1.00
16198;DHT22;8206;51.440;6.914;2022-08-21T05:15:00;15.10;1.00
16198;DHT22;8206;51.440;6.914;2022-08-21T05:17:27;15.40;1.00
16198;DHT22;8206;51.440;6.914;2022-08-21T05:19:54;15.90;1.00
16198;DHT22;8206;51.440;6.914;2022-08-21T05:22:23;16.50;1.00
16198;DHT22;8206;51.440;6.914;2022-08-21T05:24:51;17.20;1.00
16198;DHT22;8206;51.440;6.914;2022-08-21T05:27:18;17.80;1.00
16198;DHT22;8206;51.440;6.914;2022-08-21T05:29:45;18.40;1.00
16198;DHT22;8206;51.440;6.914;2022-08-21T05:32:13;19.00;1.00
16198;DHT22;8206;51.440;6.914;2022-08-21T05:34:40;19.60;1.00
16198;DHT22;8206;51.440;6.914;2022-08-21T05:37:07;20.10;99.90
16198;DHT22;8206;51.440;6.914;2022-08-21T05:39:35;20.50;1.00
16198;DHT22;8206;51.440;6.914;2022-08-21T05:42:02;20.80;99.90
16198;DHT22;8206;51.440;6.914;2022-08-21T05:44:29;21.10;99.90
16198;DHT22;8206;51.440;6.914;2022-08-21T05:47:02;21.10;99.90
16198;DHT22;8206;51.440;6.914;2022-08-21T05:49:30;21.30;99.90
16198;DHT22;8206;51.440;6.914;2022-08-21T05:51:56;21.70;99.90
16198;DHT22;8206;51.440;6.914;2022-08-21T05:54:23;21.50;99.90
16198;DHT22;8206;51.440;6.914;2022-08-21T05:56:51;21.70;99.90
16198;DHT22;8206;51.440;6.914;2022-08-21T05:59:18;22.10;99.90
16198;DHT22;8206;51.440;6.914;2022-08-21T06:01:45;22.20;99.90
16198;DHT22;8206;51.440;6.914;2022-08-21T06:04:12;22.60;99.90
16198;DHT22;8206;51.440;6.914;2022-08-21T06:06:39;22.90;99.90
16198;DHT22;8206;51.440;6.914;2022-08-21T06:09:06;23.30;99.90
16198;DHT22;8206;51.440;6.914;2022-08-21T06:11:33;23.60;99.90
16198;DHT22;8206;51.440;6.914;2022-08-21T06:14:02;23.70;99.90
16198;DHT22;8206;51.440;6.914;2022-08-21T06:16:31;23.80;99.90
16198;DHT22;8206;51.440;6.914;2022-08-21T06:18:58;23.80;99.90
16198;DHT22;8206;51.440;6.914;2022-08-21T06:21:25;23.80;99.90
16198;DHT22;8206;51.440;6.914;2022-08-21T06:23:52;24.00;99.90
16198;DHT22;8206;51.440;6.914;2022-08-21T06:26:18;23.90;99.90
16198;DHT22;8206;51.440;6.914;2022-08-21T06:28:46;24.20;99.90
16198;DHT22;8206;51.440;6.914;2022-08-21T06:31:16;24.40;99.90
16198;DHT22;8206;51.440;6.914;2022-08-21T06:33:43;24.20;99.90
16198;DHT22;8206;51.440;6.914;2022-08-21T06:36:10;24.20;99.90
16198;DHT22;8206;51.440;6.914;2022-08-21T06:38:38;24.20;99.90
16198;DHT22;8206;51.440;6.914;2022-08-21T06:41:05;24.10;99.90
16198;DHT22;8206;51.440;6.914;2022-08-21T06:43:33;23.70;99.90
16198;DHT22;8206;51.440;6.914;2022-08-21T06:46:00;23.40;99.90
16198;DHT22;8206;51.440;6.914;2022-08-21T06:48:28;23.10;99.90
16198;DHT22;8206;51.440;6.914;2022-08-21T06:50:58;22.70;99.90
16198;DHT22;8206;51.440;6.914;2022-08-21T06:53:25;22.40;99.90
16198;DHT22;8206;51.440;6.914;2022-08-21T06:55:52;22.20;99.90
16198;DHT22;8206;51.440;6.914;2022-08-21T06:58:19;21.90;99.90
16198;DHT22;8206;51.440;6.914;2022-08-21T07:00:49;21.80;99.90
16198;DHT22;8206;51.440;6.914;2022-08-21T07:03:19;21.70;99.90
16198;DHT22;8206;51.440;6.914;2022-08-21T07:05:47;21.40;99.90
16198;DHT22;8206;51.440;6.914;2022-08-21T07:08:14;21.10;99.90
16198;DHT22;8206;51.440;6.914;2022-08-21T07:10:40;20.70;99.90
16198;DHT22;8206;51.440;6.914;2022-08-21T07:13:07;20.40;99.90
16198;DHT22;8206;51.440;6.914;2022-08-21T07:15:34;20.20;99.90
16198;DHT22;8206;51.440;6.914;2022-08-21T07:18:01;20.10;99.90
16198;DHT22;8206;51.440;6.914;2022-08-21T07:20:29;20.00;99.90
16198;DHT22;8206;51.440;6.914;2022-08-21T07:23:01;20.00;99.90
16198;DHT22;8206;51.440;6.914;2022-08-21T07:25:29;20.10;99.90
16198;DHT22;8206;51.440;6.914;2022-08-21T07:27:56;20.10;99.90
16198;DHT22;8206;51.440;6.914;2022-08-21T07:30:23;20.10;99.90
16198;DHT22;8206;51.440;6.914;2022-08-21T07:32:50;20.00;99.90
16198;DHT22;8206;51.440;6.914;2022-08-21T07:35:18;20.10;99.90
16198;DHT22;8206;51.440;6.914;2022-08-21T07:37:45;20.10;99.90
16198;DHT22;8206;51.440;6.914;2022-08-21T07:40:15;20.30;99.90
16198;DHT22;8206;51.440;6.914;2022-08-21T07:42:43;20.50;99.90
16198;DHT22;8206;51.440;6.914;2022-08-21T07:45:11;20.60;99.90
16198;DHT22;8206;51.440;6.914;2022-08-21T07:47:38;20.70;99.90
16198;DHT22;8206;51.440;6.914;2022-08-21T07:50:06;20.60;99.90
16198;DHT22;8206;51.440;6.914;2022-08-21T07:52:33;20.70;99.90
16198;DHT22;8206;51.440;6.914;2022-08-21T07:55:00;20.70;99.90
16198;DHT22;8206;51.440;6.914;2022-08-21T07:57:28;20.70;99.90
16198;DHT22;8206;51.440;6.914;2022-08-21T07:59:55;20.70;99.90
16198;DHT22;8206;51.440;6.914;2022-08-21T08:02:23;20.70;99.90
16198;DHT22;8206;51.440;6.914;2022-08-21T08:04:50;20.70;99.90
16198;DHT22;8206;51.440;6.914;2022-08-21T08:07:17;20.80;99.90
16198;DHT22;8206;51.440;6.914;2022-08-21T08:09:44;20.80;99.90
16198;DHT22;8206;51.440;6.914;2022-08-21T08:12:11;20.80;99.90
16198;DHT22;8206;51.440;6.914;2022-08-21T08:14:39;20.80;99.90
16198;DHT22;8206;51.440;6.914;2022-08-21T08:17:06;20.90;99.90
16198;DHT22;8206;51.440;6.914;2022-08-21T08:19:33;21.10;99.90
16198;DHT22;8206;51.440;6.914;2022-08-21T08:21:59;21.10;99.90
16198;DHT22;8206;51.440;6.914;2022-08-21T08:24:26;21.20;99.90
16198;DHT22;8206;51.440;6.914;2022-08-21T08:26:53;21.30;99.90
16198;DHT22;8206;51.440;6.914;2022-08-21T08:29:22;21.40;99.90
16198;DHT22;8206;51.440;6.914;2022-08-21T08:31:50;21.40;99.90
16198;DHT22;8206;51.440;6.914;2022-08-21T08:34:17;21.40;99.90
16198;DHT22;8206;51.440;6.914;2022-08-21T08:36:45;21.40;99.90
16198;DHT22;8206;51.440;6.914;2022-08-21T08:39:11;21.50;99.90
16198;DHT22;8206;51.440;6.914;2022-08-21T08:41:39;21.60;99.90
16198;DHT22;8206;51.440;6.914;2022-08-21T08:44:07;21.80;99.90
16198;DHT22;8206;51.440;6.914;2022-08-21T08:46:38;21.80;99.90
16198;DHT22;8206;51.440;6.914;2022-08-21T08:49:11;21.90;99.90
16198;DHT22;8206;51.440;6.914;2022-08-21T08:51:44;22.00;99.90
16198;DHT22;8206;51.440;6.914;2022-08-21T08:54:19;22.10;99.90
16198;DHT22;8206;51.440;6.914;2022-08-21T08:56:49;22.00;99.90
16198;DHT22;8206;51.440;6.914;2022-08-21T08:59:20;22.20;99.90
16198;DHT22;8206;51.440;6.914;2022-08-21T09:01:49;22.40;99.90
16198;DHT22;8206;51.440;6.914;2022-08-21T09:04:22;22.50;99.90
16198;DHT22;8206;51.440;6.914;2022-08-21T09:06:58;22.60;99.90
16198;DHT22;8206;51.440;6.914;2022-08-21T09:09:41;22.60;99.90
16198;DHT22;8206;51.440;6.914;2022-08-21T09:12:18;22.60;99.90
16198;DHT22;8206;51.440;6.914;2022-08-21T09:15:07;22.60;99.90
16198;DHT22;8206;51.440;6.914;2022-08-21T09:17:46;22.60;99.90
16198;DHT22;8206;51.440;6.914;2022-08-21T09:20:26;22.70;99.90
16198;DHT22;8206;51.440;6.914;2022-08-21T09:23:04;22.60;99.90
16198;DHT22;8206;51.440;6.914;2022-08-21T09:25:41;22.50;99.90
16198;DHT22;8206;51.440;6.914;2022-08-21T09:28:09;22.50;99.90
16198;DHT22;8206;51.440;6.914;2022-08-21T09:30:39;22.60;99.90
16198;DHT22;8206;51.440;6.914;2022-08-21T09:33:07;22.60;99.90
16198;DHT22;8206;51.440;6.914;2022-08-21T09:35:48;22.70;99.90
16198;DHT22;8206;51.440;6.914;2022-08-21T09:38:25;22.70;99.90
16198;DHT22;8206;51.440;6.914;2022-08-21T09:40:57;22.80;99.90
16198;DHT22;8206;51.440;6.914;2022-08-21T09:43:26;22.80;99.90
16198;DHT22;8206;51.440;6.914;2022-08-21T09:46:05;22.90;99.90
16198;DHT22;8206;51.440;6.914;2022-08-21T09:48:43;22.90;99.90
16198;DHT22;8206;51.440;6.914;2022-08-21T09:51:16;22.90;99.90
16198;DHT22;8206;51.440;6.914;2022-08-21T09:53:46;22.90;99.90
16198;DHT22;8206;51.440;6.914;2022-08-21T09:56:20;22.90;99.90
16198;DHT22;8206;51.440;6.914;2022-08-21T09:59:15;22.90;99.90
16198;DHT22;8206;51.440;6.914;2022-08-21T10:01:44;23.10;99.90
16198;DHT22;8206;51.440;6.914;2022-08-21T10:04:11;23.20;99.90
16198;DHT22;8206;51.440;6.914;2022-08-21T10:06:40;23.30;99.90
16198;DHT22;8206;51.440;6.914;2022-08-21T10:09:09;23.50;99.90
16198;DHT22;8206;51.440;6.914;2022-08-21T10:11:37;23.50;99.90
16198;DHT22;8206;51.440;6.914;2022-08-21T10:14:13;23.40;99.90
16198;DHT22;8206;51.440;6.914;2022-08-21T10:16:52;23.50;99.90
16198;DHT22;8206;51.440;6.914;2022-08-21T10:19:28;23.70;99.90
16198;DHT22;8206;51.440;6.914;2022-08-21T10:22:06;23.80;99.90
16198;DHT22;8206;51.440;6.914;2022-08-21T10:24:45;23.80;99.90
16198;DHT22;8206;51.440;6.914;2022-08-21T10:27:22;23.70;99.90
16198;DHT22;8206;51.440;6.914;2022-08-21T10:29:57;23.80;99.90
16198;DHT22;8206;51.440;6.914;2022-08-21T10:32:34;23.80;99.90
16198;DHT22;8206;51.440;6.914;2022-08-21T10:35:10;23.80;99.90
16198;DHT22;8206;51.440;6.914;2022-08-21T10:37:48;23.70;99.90
16198;DHT22;8206;51.440;6.914;2022-08-21T10:40:23;23.80;99.90
16198;DHT22;8206;51.440;6.914;2022-08-21T10:42:59;23.80;99.90
16198;DHT22;8206;51.440;6.914;2022-08-21T10:45:36;23.90;99.90
16198;DHT22;8206;51.440;6.914;2022-08-21T10:48:06;23.90;99.90
16198;DHT22;8206;51.440;6.914;2022-08-21T10:50:38;24.00;99.90
16198;DHT22;8206;51.440;6.914;2022-08-21T10:53:28;24.10;99.90
16198;DHT22;8206;51.440;6.914;2022-08-21T10:56:01;24.20;99.90
16198;DHT22;8206;51.440;6.914;2022-08-21T10:58:30;24.30;99.90
16198;DHT22;8206;51.440;6.914;2022-08-21T11:01:04;24.20;99.90
16198;DHT22;8206;51.440;6.914;2022-08-21T11:03:39;24.40;99.90
16198;DHT22;8206;51.440;6.914;2022-08-21T11:06:13;24.50;99.90
16198;DHT22;8206;51.440;6.914;2022-08-21T11:08:44;24.80;99.90
16198;DHT22;8206;51.440;6.914;2022-08-21T11:11:15;24.80;99.90
16198;DHT22;8206;51.440;6.914;2022-08-21T11:13:46;24.70;99.90
16198;DHT22;8206;51.440;6.914;2022-08-21T11:16:18;24.90;99.90
16198;DHT22;8206;51.440;6.914;2022-08-21T11:18:53;25.10;99.90
16198;DHT22;8206;51.440;6.914;2022-08-21T11:21:32;25.10;99.90
16198;DHT22;8206;51.440;6.914;2022-08-21T11:24:17;25.10;99.90
16198;DHT22;8206;51.440;6.914;2022-08-21T11:26:50;25.00;99.90
16198;DHT22;8206;51.440;6.914;2022-08-21T11:29:23;25.10;99.90
16198;DHT22;8206;51.440;6.914;2022-08-21T11:32:18;25.20;99.90
16198;DHT22;8206;51.440;6.914;2022-08-21T11:34:54;25.10;99.90
16198;DHT22;8206;51.440;6.914;2022-08-21T11:37:38;25.40;99.90
16198;DHT22;8206;51.440;6.914;2022-08-21T11:40:15;25.60;99.90
16198;DHT22;8206;51.440;6.914;2022-08-21T11:42:55;25.60;99.90
16198;DHT22;8206;51.440;6.914;2022-08-21T11:45:30;25.70;99.90
16198;DHT22;8206;51.440;6.914;2022-08-21T11:48:06;25.90;99.90
16198;DHT22;8206;51.440;6.914;2022-08-21T11:50:36;25.80;99.90
16198;DHT22;8206;51.440;6.914;2022-08-21T11:53:08;25.80;99.90
16198;DHT22;8206;51.440;6.914;2022-08-21T11:55:41;25.80;99.90
16198;DHT22;8206;51.440;6.914;2022-08-21T11:58:14;26.00;99.90
16198;DHT22;8206;51.440;6.914;2022-08-21T12:00:47;25.80;99.90
16198;DHT22;8206;51.440;6.914;2022-08-21T12:03:21;25.80;99.90
16198;DHT22;8206;51.440;6.914;2022-08-21T12:05:54;25.50;99.90
16198;DHT22;8206;51.440;6.914;2022-08-21T12:08:28;25.20;99.90
16198;DHT22;8206;51.440;6.914;2022-08-21T12:11:03;25.00;99.90
16198;DHT22;8206;51.440;6.914;2022-08-21T12:13:33;24.90;99.90
16198;DHT22;8206;51.440;6.914;2022-08-21T12:16:07;24.90;99.90
16198;DHT22;8206;51.440;6.914;2022-08-21T12:18:35;24.80;99.90
16198;DHT22;8206;51.440;6.914;2022-08-21T12:21:16;24.90;99.90
16198;DHT22;8206;51.440;6.914;2022-08-21T12:23:46;24.80;99.90
16198;DHT22;8206;51.440;6.914;2022-08-21T12:26:24;24.70;99.90
16198;DHT22;8206;51.440;6.914;2022-08-21T12:29:12;24.70;99.90
16198;DHT22;8206;51.440;6.914;2022-08-21T12:31:53;24.90;99.90
16198;DHT22;8206;51.440;6.914;2022-08-21T12:34:22;25.00;99.90
16198;DHT22;8206;51.440;6.914;2022-08-21T12:36:54;25.20;99.90
16198;DHT22;8206;51.440;6.914;2022-08-21T12:39:26;25.30;99.90
16198;DHT22;8206;51.440;6.914;2022-08-21T12:41:59;25.30;99.90
16198;DHT22;8206;51.440;6.914;2022-08-21T12:44:35;25.30;99.90
16198;DHT22;8206;51.440;6.914;2022-08-21T12:47:11;25.10;99.90
16198;DHT22;8206;51.440;6.914;2022-08-21T12:49:47;25.10;99.90
16198;DHT22;8206;51.440;6.914;2022-08-21T12:52:22;25.10;99.90
16198;DHT22;8206;51.440;6.914;2022-08-21T12:54:49;25.20;99.90
16198;DHT22;8206;51.440;6.914;2022-08-21T12:57:23;25.20;99.90
16198;DHT22;8206;51.440;6.914;2022-08-21T12:59:53;25.20;99.90
16198;DHT22;8206;51.440;6.914;2022-08-21T13:02:23;25.40;99.90
16198;DHT22;8206;51.440;6.914;2022-08-21T13:04:51;25.50;99.90
16198;DHT22;8206;51.440;6.914;2022-08-21T13:07:25;25.40;99.90
16198;DHT22;8206;51.440;6.914;2022-08-21T13:09:56;25.30;99.90
16198;DHT22;8206;51.440;6.914;2022-08-21T13:12:25;25.30;99.90
16198;DHT22;8206;51.440;6.914;2022-08-21T13:14:56;25.00;99.90
16198;DHT22;8206;51.440;6.914;2022-08-21T13:17:25;25.10;99.90
16198;DHT22;8206;51.440;6.914;2022-08-21T13:19:54;25.20;99.90
16198;DHT22;8206;51.440;6.914;2022-08-21T13:22:21;25.30;99.90
16198;DHT22;8206;51.440;6.914;2022-08-21T13:24:48;25.30;99.90
16198;DHT22;8206;51.440;6.914;2022-08-21T13:27:22;25.40;99.90
16198;DHT22;8206;51.440;6.914;2022-08-21T13:30:00;25.50;99.90
16198;DHT22;8206;51.440;6.914;2022-08-21T13:32:29;25.50;99.90
16198;DHT22;8206;51.440;6.914;2022-08-21T13:34:58;25.50;99.90
16198;DHT22;8206;51.440;6.914;2022-08-21T13:37:26;25.60;99.90
16198;DHT22;8206;51.440;6.914;2022-08-21T13:39:54;25.70;99.90
16198;DHT22;8206;51.440;6.914;2022-08-21T13:42:21;25.80;99.90
16198;DHT22;8206;51.440;6.914;2022-08-21T13:44:52;26.10;99.90
16198;DHT22;8206;51.440;6.914;2022-08-21T13:47:20;26.40;99.90
16198;DHT22;8206;51.440;6.914;2022-08-21T13:49:48;26.70;99.90
16198;DHT22;8206;51.440;6.914;2022-08-21T13:52:19;26.70;99.90
16198;DHT22;8206;51.440;6.914;2022-08-21T13:54:53;27.00;99.90
16198;DHT22;8206;51.440;6.914;2022-08-21T13:57:26;26.80;99.90
16198;DHT22;8206;51.440;6.914;2022-08-21T14:00:10;26.90;99.90
16198;DHT22;8206;51.440;6.914;2022-08-21T14:02:39;27.00;99.90
16198;DHT22;8206;51.440;6.914;2022-08-21T14:05:10;27.00;99.90
16198;DHT22;8206;51.440;6.914;2022-08-21T14:07:42;26.80;99.90
16198;DHT22;8206;51.440;6.914;2022-08-21T14:10:13;26.70;99.90
16198;DHT22;8206;51.440;6.914;2022-08-21T14:12:45;26.60;99.90
16198;DHT22;8206;51.440;6.914;2022-08-21T14:15:14;26.40;99.90
16198;DHT22;8206;51.440;6.914;2022-08-21T14:17:43;26.40;99.90
16198;DHT22;8206;51.440;6.914;2022-08-21T14:20:12;26.20;99.90
16198;DHT22;8206;51.440;6.914;2022-08-21T14:22:41;26.20;99.90
16198;DHT22;8206;51.440;6.914;2022-08-21T14:25:12;26.20;99.90
16198;DHT22;8206;51.440;6.914;2022-08-21T14:27:43;26.20;99.90
16198;DHT22;8206;51.440;6.914;2022-08-21T14:30:16;26.10;99.90
16198;DHT22;8206;51.440;6.914;2022-08-21T14:32:45;26.10;99.90
16198;DHT22;8206;51.440;6.914;2022-08-21T14:35:13;26.10;99.90
16198;DHT22;8206;51.440;6.914;2022-08-21T14:37:41;26.20;99.90
16198;DHT22;8206;51.440;6.914;2022-08-21T14:40:09;26.40;99.90
16198;DHT22;8206;51.440;6.914;2022-08-21T14:42:37;26.60;99.90
16198;DHT22;8206;51.440;6.914;2022-08-21T14:45:16;26.70;99.90
16198;DHT22;8206;51.440;6.914;2022-08-21T14:47:44;26.90;99.90
16198;DHT22;8206;51.440;6.914;2022-08-21T14:50:12;27.00;99.90
16198;DHT22;8206;51.440;6.914;2022-08-21T14:52:39;27.10;99.90
16198;DHT22;8206;51.440;6.914;2022-08-21T14:55:07;27.30;99.90
16198;DHT22;8206;51.440;6.914;2022-08-21T14:57:36;27.30;99.90
16198;DHT22;8206;51.440;6.914;2022-08-21T15:00:04;27.20;99.90
16198;DHT22;8206;51.440;6.914;2022-08-21T15:02:32;27.00;99.90
16198;DHT22;8206;51.440;6.914;2022-08-21T15:05:00;26.70;99.90
16198;DHT22;8206;51.440;6.914;2022-08-21T15:07:27;26.80;99.90
16198;DHT22;8206;51.440;6.914;2022-08-21T15:09:53;26.90;99.90
16198;DHT22;8206;51.440;6.914;2022-08-21T15:12:20;26.80;99.90
16198;DHT22;8206;51.440;6.914;2022-08-21T15:14:47;26.60;99.90
16198;DHT22;8206;51.440;6.914;2022-08-21T15:17:14;26.50;99.90
16198;DHT22;8206;51.440;6.914;2022-08-21T15:19:41;26.40;99.90
16198;DHT22;8206;51.440;6.914;2022-08-21T15:22:09;26.20;99.90
16198;DHT22;8206;51.440;6.914;2022-08-21T15:24:36;25.90;99.90
16198;DHT22;8206;51.440;6.914;2022-08-21T15:27:04;25.80;99.90
16198;DHT22;8206;51.440;6.914;2022-08-21T15:29:32;25.80;99.90
16198;DHT22;8206;51.440;6.914;2022-08-21T15:32:02;25.70;99.90
16198;DHT22;8206;51.440;6.914;2022-08-21T15:34:30;25.70;99.90
16198;DHT22;8206;51.440;6.914;2022-08-21T15:36:58;25.80;99.90
16198;DHT22;8206;51.440;6.914;2022-08-21T15:39:27;26.00;99.90
16198;DHT22;8206;51.440;6.914;2022-08-21T15:41:54;26.20;99.90
16198;DHT22;8206;51.440;6.914;2022-08-21T15:44:20;26.40;99.90
16198;DHT22;8206;51.440;6.914;2022-08-21T15:46:47;26.70;99.90
16198;DHT22;8206;51.440;6.914;2022-08-21T15:49:14;26.90;99.90
16198;DHT22;8206;51.440;6.914;2022-08-21T15:51:42;26.70;99.90
16198;DHT22;8206;51.440;6.914;2022-08-21T15:54:09;26.60;99.90
16198;DHT22;8206;51.440;6.914;2022-08-21T15:56:39;26.40;99.90
16198;DHT22;8206;51.440;6.914;2022-08-21T15:59:13;26.20;99.90
16198;DHT22;8206;51.440;6.914;2022-08-21T16:01:41;26.00;99.90
16198;DHT22;8206;51.440;6.914;2022-08-21T16:04:08;26.10;99.90
16198;DHT22;8206;51.440;6.914;2022-08-21T16:06:35;26.20;99.90
16198;DHT22;8206;51.440;6.914;2022-08-21T16:09:02;26.20;99.90